Main page
METAR-TAF:

METAR-TAF

Airports :

Avignon, France

Avignon – Provence Airport

latitude: 43-54-26N, longitude: 004-54-07E, elevation: 38 m

Current weather observation

The report was made 23 minutes ago, at 03:30 UTC
Wind 14 kt from the North, varying between Northwest and North/Northeast
Temperature 13°C
Humidity 67%
Pressure 1019 hPa
Visibility 10 km or more
no clouds below 1500 m and no cumulonimbus

METAR: LFMV 200330Z AUTO 35014KT 320V030 CAVOK 13/07 Q1019 TEMPO 35017G27KT

Time: 05:53 (03:53 UTC)

Forecast

The report was made 1 hour and 53 minutes ago, at 02:00 UTC
Forecast valid from 20 at 03 UTC to 21 at 03 UTC
Wind 17 kt from the North
Visibility 10 km or more
no clouds below 1500 m and no cumulonimbus
Temporary
from 20 at 03 UTC to 20 at 16 UTC
Wind 17 kt from the North with gusts up to 27 kt
Becoming
from 21 at 00 UTC to 21 at 03 UTC
Wind 6 kt from the North

TAF: LFMV 200200Z 2003/2103 35017KT CAVOK TEMPO 2003/2016 35017G27KT BECMG 2100/2103 35006KT

Weather observations and forecasts of more than 4000 airports (METAR and TAF reports).

The available stations are represented by yellow and red dots on the map.

Hover mouse over dot to see the name of the station.

Then click to see weather observations and forecasts.

To change the map : click on the green buttons with a black cross to zoom in, on the green button with a dash to zoom out, or on the green arrows for adjacent maps.


METAR-TAF: